createdAt,value
2023-04-11T00:01:50.262Z,14.00
2023-04-11T00:04:18.084Z,13.80
2023-04-11T00:06:46.506Z,13.50
2023-04-11T00:09:13.816Z,13.90
2023-04-11T00:11:41.015Z,15.10
2023-04-11T00:14:09.760Z,12.90
2023-04-11T00:16:37.188Z,14.40
2023-04-11T00:19:04.473Z,16.70
2023-04-11T00:21:32.220Z,16.30
2023-04-11T00:23:59.848Z,15.90
2023-04-11T00:26:27.686Z,15.00
2023-04-11T00:28:55.463Z,19.60
2023-04-11T00:31:23.049Z,18.90
2023-04-11T00:33:50.328Z,20.20
2023-04-11T00:36:17.969Z,21.20
2023-04-11T00:38:46.793Z,20.10
2023-04-11T00:41:14.057Z,22.30
2023-04-11T00:43:41.716Z,20.10
2023-04-11T00:46:09.772Z,20.50
2023-04-11T00:48:37.151Z,20.10
2023-04-11T00:51:04.798Z,21.40
2023-04-11T00:53:33.117Z,21.30
2023-04-11T00:56:01.004Z,21.10
2023-04-11T00:58:29.540Z,21.30
2023-04-11T01:03:58.636Z,21.50
2023-04-11T01:06:28.043Z,21.80
2023-04-11T01:08:55.577Z,21.40
2023-04-11T01:11:23.874Z,22.20
2023-04-11T01:13:52.014Z,23.40
2023-04-11T01:16:22.374Z,22.40
2023-04-11T01:18:51.230Z,19.10
2023-04-11T01:21:20.699Z,18.40
2023-04-11T01:23:53.755Z,21.10
2023-04-11T01:26:22.272Z,24.00
2023-04-11T01:28:50.411Z,25.60
2023-04-11T01:31:18.680Z,27.00
2023-04-11T01:33:46.255Z,24.70
2023-04-11T01:36:13.814Z,27.10
2023-04-11T01:38:41.893Z,28.30
2023-04-11T01:41:11.290Z,26.20
2023-04-11T01:43:38.648Z,25.80
2023-04-11T01:46:06.150Z,25.30
2023-04-11T01:48:34.894Z,24.10
2023-04-11T01:51:02.292Z,25.80
2023-04-11T01:53:29.857Z,25.90
2023-04-11T01:55:57.134Z,25.70
2023-04-11T01:58:25.303Z,25.80
2023-04-11T02:00:52.842Z,27.00
2023-04-11T02:03:21.684Z,26.90
2023-04-11T02:05:50.782Z,26.90
2023-04-11T02:08:18.404Z,29.20
2023-04-11T02:10:45.689Z,27.10
2023-04-11T02:13:12.913Z,28.30
2023-04-11T02:15:40.701Z,28.70
2023-04-11T02:18:09.954Z,27.70
2023-04-11T02:20:38.003Z,28.40
2023-04-11T02:23:06.721Z,28.00
2023-04-11T02:25:34.539Z,29.20
2023-04-11T02:28:02.546Z,26.80
2023-04-11T02:30:30.454Z,27.60
2023-04-11T02:32:58.311Z,30.60
2023-04-11T02:35:26.835Z,30.50
2023-04-11T02:37:54.112Z,30.40
2023-04-11T02:40:21.666Z,29.00
2023-04-11T02:42:48.933Z,27.70
2023-04-11T02:45:16.530Z,26.00
2023-04-11T02:47:43.809Z,25.10
2023-04-11T02:50:11.418Z,24.90
2023-04-11T02:52:40.364Z,25.20
2023-04-11T02:55:07.758Z,23.90
2023-04-11T02:57:34.973Z,23.50
2023-04-11T03:00:02.768Z,23.00
2023-04-11T03:02:30.461Z,22.00
2023-04-11T03:04:57.921Z,21.80
2023-04-11T03:07:25.703Z,21.50
2023-04-11T03:09:53.115Z,20.60
2023-04-11T03:12:20.832Z,21.80
2023-04-11T03:14:48.375Z,21.80
2023-04-11T03:17:15.922Z,21.60
2023-04-11T03:19:43.173Z,21.10
2023-04-11T03:22:12.828Z,21.80
2023-04-11T03:24:40.261Z,20.20
2023-04-11T03:27:07.602Z,22.20
2023-04-11T03:29:35.206Z,20.80
2023-04-11T03:32:02.672Z,21.10
2023-04-11T03:34:30.391Z,20.80
2023-04-11T03:36:57.784Z,21.20
2023-04-11T03:39:25.649Z,21.40
2023-04-11T03:41:52.742Z,21.20
2023-04-11T03:44:20.402Z,21.70
2023-04-11T03:46:47.987Z,21.70
2023-04-11T03:49:15.242Z,21.60
2023-04-11T03:51:42.452Z,22.10
2023-04-11T03:54:10.121Z,21.60
2023-04-11T03:56:37.226Z,22.90
2023-04-11T03:59:04.497Z,22.10
2023-04-11T04:01:32.249Z,23.10
2023-04-11T04:04:01.178Z,22.80
2023-04-11T04:06:29.421Z,23.30
2023-04-11T04:08:56.629Z,23.40
2023-04-11T04:11:23.860Z,22.70
2023-04-11T04:13:51.322Z,23.00
2023-04-11T04:16:18.921Z,21.70
2023-04-11T04:18:46.159Z,22.10
2023-04-11T04:21:13.629Z,21.50
2023-04-11T04:23:47.936Z,23.30
2023-04-11T04:26:17.078Z,24.30
2023-04-11T04:28:47.801Z,22.40
2023-04-11T04:31:16.142Z,20.70
2023-04-11T04:33:43.969Z,21.00
2023-04-11T04:36:12.836Z,20.50
2023-04-11T04:38:42.561Z,22.20
2023-04-11T04:41:16.339Z,19.70
2023-04-11T04:43:44.398Z,19.10
2023-04-11T04:46:11.747Z,18.20
2023-04-11T04:48:39.144Z,18.50
2023-04-11T04:51:07.638Z,17.70
2023-04-11T04:53:35.149Z,18.30
2023-04-11T04:56:03.429Z,21.50
2023-04-11T04:58:31.208Z,20.40
2023-04-11T05:00:58.447Z,20.70
2023-04-11T05:03:25.871Z,20.50
2023-04-11T05:05:53.683Z,19.90
2023-04-11T05:08:21.491Z,19.10
2023-04-11T05:10:49.033Z,19.60
2023-04-11T05:13:16.798Z,18.80
2023-04-11T05:15:51.770Z,16.60
2023-04-11T05:18:19.289Z,16.90
2023-04-11T05:20:46.655Z,14.70
2023-04-11T05:23:13.893Z,15.00
2023-04-11T05:25:41.602Z,15.90
2023-04-11T05:28:08.687Z,14.10
2023-04-11T05:30:36.460Z,14.60
2023-04-11T05:33:03.876Z,13.40
2023-04-11T05:35:31.369Z,15.10
2023-04-11T05:37:59.182Z,17.90
2023-04-11T05:40:26.728Z,16.10
2023-04-11T05:42:53.923Z,16.30
2023-04-11T05:45:21.491Z,18.20
2023-04-11T05:47:49.164Z,18.90
2023-04-11T05:50:16.509Z,18.40
2023-04-11T05:52:43.758Z,18.30
2023-04-11T05:55:11.778Z,17.30
2023-04-11T05:57:39.018Z,19.30
2023-04-11T06:00:14.559Z,18.40
2023-04-11T06:02:43.122Z,19.90
2023-04-11T06:05:12.418Z,15.60
2023-04-11T06:07:42.202Z,18.30
2023-04-11T06:10:11.232Z,17.20
2023-04-11T06:12:40.327Z,17.40
2023-04-11T06:15:09.981Z,18.60
2023-04-11T06:17:38.377Z,17.60
2023-04-11T06:20:07.679Z,17.20
2023-04-11T06:22:35.462Z,18.30
2023-04-11T06:25:04.459Z,18.40
2023-04-11T06:27:31.645Z,16.30
2023-04-11T06:30:03.374Z,15.40
2023-04-11T06:32:35.537Z,15.10
2023-04-11T06:35:07.806Z,14.70
2023-04-11T06:37:38.945Z,13.80
2023-04-11T06:40:11.315Z,13.20
2023-04-11T06:42:43.691Z,12.00
2023-04-11T06:45:12.582Z,11.50
2023-04-11T06:47:40.176Z,10.10
2023-04-11T06:50:08.185Z,9.60
2023-04-11T06:52:35.901Z,9.30
2023-04-11T06:55:03.728Z,9.60
2023-04-11T06:57:31.197Z,7.70
2023-04-11T06:59:58.775Z,7.60
2023-04-11T07:02:26.833Z,7.80
2023-04-11T07:04:54.642Z,7.60
2023-04-11T07:07:21.958Z,7.00
2023-04-11T07:09:49.420Z,6.50
2023-04-11T07:12:16.748Z,7.40
2023-04-11T07:14:44.083Z,7.60
2023-04-11T07:17:11.547Z,7.30
2023-04-11T07:19:38.692Z,7.00
2023-04-11T07:22:06.056Z,7.20
2023-04-11T07:24:33.656Z,6.10
2023-04-11T07:27:02.272Z,6.80
2023-04-11T07:29:29.863Z,5.90
2023-04-11T07:31:57.827Z,7.20
2023-04-11T07:34:25.148Z,7.20
2023-04-11T07:36:52.837Z,7.50
2023-04-11T07:39:20.580Z,6.70
2023-04-11T07:41:47.872Z,7.00
2023-04-11T07:44:15.930Z,7.00
2023-04-11T07:46:43.132Z,6.30
2023-04-11T07:49:10.432Z,6.50
2023-04-11T07:51:37.784Z,5.40
2023-04-11T07:54:04.889Z,5.10
2023-04-11T07:56:32.268Z,4.90
2023-04-11T07:59:02.100Z,5.40
2023-04-11T08:01:29.289Z,6.10
2023-04-11T08:03:57.715Z,5.30
2023-04-11T08:06:26.019Z,5.80
2023-04-11T08:08:53.239Z,5.50
2023-04-11T08:11:20.955Z,5.50
2023-04-11T08:13:48.885Z,4.70
2023-04-11T08:16:16.355Z,4.80
2023-04-11T08:18:43.731Z,4.50
2023-04-11T08:21:14.467Z,4.50
2023-04-11T08:23:42.806Z,4.30
2023-04-11T08:26:11.151Z,4.20
2023-04-11T08:28:41.058Z,3.90
2023-04-11T08:31:11.002Z,4.00
2023-04-11T08:33:39.406Z,3.70
2023-04-11T08:36:10.620Z,3.50
2023-04-11T08:38:39.666Z,3.50
2023-04-11T08:41:07.805Z,3.40
2023-04-11T08:43:36.440Z,3.40
2023-04-11T08:46:04.461Z,3.10
2023-04-11T08:48:32.794Z,2.40
2023-04-11T08:51:00.659Z,2.80
2023-04-11T08:53:28.468Z,2.60
2023-04-11T08:55:55.821Z,2.40
2023-04-11T08:58:23.929Z,2.60
2023-04-11T09:00:51.409Z,2.60
2023-04-11T09:03:19.241Z,3.20
2023-04-11T09:05:50.216Z,3.00
2023-04-11T09:08:18.196Z,2.60
2023-04-11T09:10:46.540Z,2.50
2023-04-11T09:13:28.544Z,2.40
2023-04-11T09:16:10.374Z,2.40
2023-04-11T09:18:40.357Z,2.50
2023-04-11T09:21:09.927Z,3.00
2023-04-11T09:23:38.315Z,3.00
2023-04-11T09:26:10.384Z,3.40
2023-04-11T09:28:46.013Z,3.10
2023-04-11T09:31:14.499Z,2.50
2023-04-11T09:33:57.154Z,2.80
2023-04-11T09:36:27.785Z,2.90
2023-04-11T09:38:55.305Z,2.50
2023-04-11T09:41:39.855Z,2.50
2023-04-11T09:44:07.052Z,2.40
2023-04-11T09:46:35.046Z,2.40
2023-04-11T09:49:03.546Z,2.30
2023-04-11T09:51:35.888Z,2.50
2023-04-11T09:54:06.020Z,2.50
2023-04-11T09:56:36.962Z,2.50
2023-04-11T09:59:05.940Z,2.60
2023-04-11T10:01:34.021Z,2.50
2023-04-11T10:04:01.762Z,2.30
2023-04-11T10:06:39.174Z,2.40
2023-04-11T10:09:10.049Z,2.60
2023-04-11T10:11:37.882Z,2.60
2023-04-11T10:14:05.695Z,2.10
2023-04-11T10:16:34.701Z,2.20
2023-04-11T10:19:02.331Z,2.10
2023-04-11T10:21:35.761Z,2.10
2023-04-11T10:24:11.849Z,2.30
2023-04-11T10:26:58.726Z,2.40
2023-04-11T10:29:31.818Z,2.40
2023-04-11T10:32:20.819Z,2.30
2023-04-11T10:34:54.726Z,2.50
2023-04-11T10:37:33.365Z,2.60
2023-04-11T10:40:10.561Z,3.00
2023-04-11T10:42:40.315Z,2.70
2023-04-11T10:45:25.007Z,2.90
2023-04-11T10:47:52.839Z,2.20
2023-04-11T10:50:26.626Z,2.60
2023-04-11T10:52:59.639Z,3.10
2023-04-11T10:55:30.309Z,2.70
2023-04-11T10:58:09.233Z,2.60
2023-04-11T11:00:52.779Z,2.70
2023-04-11T11:03:22.984Z,2.30
2023-04-11T11:06:05.922Z,2.90
2023-04-11T11:08:38.752Z,2.70
2023-04-11T11:11:07.864Z,2.60
2023-04-11T11:13:42.423Z,2.80
2023-04-11T11:16:13.969Z,3.00
2023-04-11T11:18:42.291Z,3.20
2023-04-11T11:21:14.201Z,2.90
2023-04-11T11:24:06.010Z,3.30
2023-04-11T11:26:44.858Z,2.70
2023-04-11T11:29:12.660Z,3.00
2023-04-11T11:31:48.550Z,2.90
2023-04-11T11:34:31.422Z,3.10
2023-04-11T11:37:02.219Z,2.80
2023-04-11T11:39:31.695Z,3.30
2023-04-11T11:41:59.211Z,3.40
2023-04-11T11:44:28.778Z,3.60
2023-04-11T11:47:10.621Z,3.30
2023-04-11T11:50:04.381Z,3.00
2023-04-11T11:52:36.386Z,3.00
2023-04-11T11:55:09.604Z,2.80
2023-04-11T11:57:44.133Z,2.90
2023-04-11T12:00:12.638Z,3.20
2023-04-11T12:02:44.573Z,3.50
2023-04-11T12:05:12.917Z,2.80
2023-04-11T12:07:41.361Z,3.20
2023-04-11T12:10:12.156Z,3.20
2023-04-11T12:12:41.806Z,3.30
2023-04-11T12:15:14.805Z,3.70
2023-04-11T12:17:43.268Z,3.00
2023-04-11T12:20:13.750Z,3.20
2023-04-11T12:22:41.993Z,3.40
2023-04-11T12:25:11.852Z,3.50
2023-04-11T12:27:40.760Z,2.90
2023-04-11T12:30:10.800Z,3.10
2023-04-11T12:32:38.937Z,3.50
2023-04-11T12:35:07.523Z,3.20
2023-04-11T12:37:36.109Z,3.00
2023-04-11T12:40:11.307Z,2.90
2023-04-11T12:42:53.162Z,3.20
2023-04-11T12:45:23.230Z,3.50
2023-04-11T12:47:51.262Z,3.70
2023-04-11T12:50:18.770Z,3.30
2023-04-11T12:52:46.067Z,3.00
2023-04-11T12:55:14.019Z,3.80
2023-04-11T12:57:42.746Z,3.70
2023-04-11T13:00:13.806Z,3.40
2023-04-11T13:02:44.894Z,3.10
2023-04-11T13:05:15.982Z,3.40
2023-04-11T13:07:45.654Z,3.20
2023-04-11T13:10:14.404Z,3.70
2023-04-11T13:12:45.643Z,3.60
2023-04-11T13:15:16.149Z,3.80
2023-04-11T13:17:43.881Z,3.50
2023-04-11T13:20:12.079Z,3.70
2023-04-11T13:22:43.998Z,3.60
2023-04-11T13:25:12.555Z,3.80
2023-04-11T13:27:41.373Z,3.70
2023-04-11T13:30:10.308Z,3.40
2023-04-11T13:32:37.598Z,3.60
2023-04-11T13:35:06.358Z,4.00
2023-04-11T13:37:34.059Z,4.60
2023-04-11T13:40:01.310Z,4.90
2023-04-11T13:42:28.569Z,6.50
2023-04-11T13:44:56.041Z,7.40
2023-04-11T13:47:23.287Z,7.00
2023-04-11T13:49:51.186Z,7.30
2023-04-11T13:52:18.947Z,6.70
2023-04-11T13:54:46.408Z,6.00
2023-04-11T13:57:14.053Z,6.70
2023-04-11T13:59:41.458Z,5.60
2023-04-11T14:02:08.987Z,5.30
2023-04-11T14:04:36.860Z,6.70
2023-04-11T14:07:04.879Z,6.40
2023-04-11T14:09:32.124Z,6.10
2023-04-11T14:11:59.923Z,7.40
2023-04-11T14:14:27.520Z,7.00
2023-04-11T14:16:54.729Z,7.40
2023-04-11T14:19:25.170Z,7.60
2023-04-11T14:21:52.796Z,6.80
2023-04-11T14:24:22.536Z,6.40
2023-04-11T14:26:50.709Z,6.50
2023-04-11T14:29:20.324Z,5.50
2023-04-11T14:31:48.363Z,5.70
2023-04-11T14:34:16.971Z,5.30
2023-04-11T14:36:44.752Z,5.70
2023-04-11T14:39:12.084Z,5.70
2023-04-11T14:41:39.588Z,5.10
2023-04-11T14:44:07.974Z,5.00
2023-04-11T14:46:35.964Z,5.50
2023-04-11T14:49:03.847Z,4.90
2023-04-11T14:51:32.274Z,4.90
2023-04-11T14:54:00.329Z,4.90
2023-04-11T14:56:27.597Z,5.10
2023-04-11T14:58:55.925Z,5.00
2023-04-11T15:01:23.261Z,5.40
2023-04-11T15:03:51.084Z,5.50
2023-04-11T15:06:18.982Z,5.90
2023-04-11T15:08:46.858Z,6.40
2023-04-11T15:11:14.208Z,5.20
2023-04-11T15:13:41.871Z,6.00
2023-04-11T15:16:09.743Z,5.50
2023-04-11T15:18:37.051Z,5.80
2023-04-11T15:21:04.952Z,6.00
2023-04-11T15:23:33.392Z,6.60
2023-04-11T15:26:03.026Z,7.10
2023-04-11T15:28:38.622Z,6.70
2023-04-11T15:31:08.495Z,7.50
2023-04-11T15:33:37.262Z,7.60
2023-04-11T15:36:05.631Z,7.90
2023-04-11T15:38:33.132Z,8.20
2023-04-11T15:41:00.660Z,8.50
2023-04-11T15:43:28.567Z,8.70
2023-04-11T15:45:55.846Z,8.50
2023-04-11T15:48:23.158Z,9.70
2023-04-11T15:50:51.776Z,9.00
2023-04-11T15:53:19.200Z,8.60
2023-04-11T15:55:47.749Z,8.50
2023-04-11T15:58:15.576Z,7.40
2023-04-11T16:00:45.247Z,8.90
2023-04-11T16:03:13.840Z,9.90
2023-04-11T16:05:43.525Z,11.90
2023-04-11T16:08:10.978Z,12.20
2023-04-11T16:10:38.621Z,12.90
2023-04-11T16:13:06.303Z,13.50
2023-04-11T16:15:33.627Z,14.20
2023-04-11T16:18:01.338Z,14.60
2023-04-11T16:20:28.966Z,18.80
2023-04-11T16:22:56.432Z,18.50
2023-04-11T16:25:23.860Z,18.70
2023-04-11T16:27:52.430Z,20.00
2023-04-11T16:30:20.184Z,18.60
2023-04-11T16:32:48.163Z,17.70
2023-04-11T16:35:15.751Z,13.70
2023-04-11T16:37:43.021Z,14.90
2023-04-11T16:40:13.509Z,12.60
2023-04-11T16:42:41.290Z,11.50
2023-04-11T16:45:12.708Z,11.30
2023-04-11T16:47:40.342Z,10.30
2023-04-11T16:50:09.901Z,10.30
2023-04-11T16:52:37.141Z,9.90
2023-04-11T16:55:05.293Z,9.50
2023-04-11T16:57:34.031Z,9.20
2023-04-11T17:00:01.365Z,9.00
2023-04-11T17:02:30.070Z,9.60
2023-04-11T17:04:57.636Z,10.10
2023-04-11T17:07:25.499Z,9.60
2023-04-11T17:09:53.039Z,10.10
2023-04-11T17:12:20.611Z,9.60
2023-04-11T17:14:48.094Z,9.30
2023-04-11T17:17:15.396Z,9.20
2023-04-11T17:19:43.398Z,7.80
2023-04-11T17:22:11.996Z,9.30
2023-04-11T17:24:39.525Z,9.20
2023-04-11T17:27:07.084Z,7.70
2023-04-11T17:29:34.428Z,8.10
2023-04-11T17:32:02.527Z,6.70
2023-04-11T17:34:30.098Z,6.80
2023-04-11T17:36:57.632Z,6.20
2023-04-11T17:39:25.835Z,5.90
2023-04-11T17:41:53.293Z,5.70
2023-04-11T17:44:21.294Z,4.90
2023-04-11T17:46:49.144Z,5.00
2023-04-11T17:49:16.911Z,4.70
2023-04-11T17:51:52.430Z,4.50
2023-04-11T17:54:26.273Z,5.40
2023-04-11T17:56:53.591Z,5.00
2023-04-11T17:59:21.671Z,4.40
2023-04-11T18:01:49.809Z,4.20
2023-04-11T18:04:18.203Z,3.80
2023-04-11T18:06:48.166Z,4.50
2023-04-11T18:09:16.368Z,3.70
2023-04-11T18:11:44.303Z,4.00
2023-04-11T18:14:11.993Z,3.70
2023-04-11T18:16:41.429Z,3.30
2023-04-11T18:19:09.076Z,2.90
2023-04-11T18:21:36.421Z,11.30
2023-04-11T18:24:05.375Z,4.30
2023-04-11T18:26:32.940Z,25.50
2023-04-11T18:29:01.056Z,6.00
2023-04-11T18:31:28.622Z,3.70
2023-04-11T18:33:56.659Z,2.30
2023-04-11T18:36:25.404Z,1.80
2023-04-11T18:38:56.120Z,1.80
2023-04-11T18:41:26.099Z,1.90
2023-04-11T18:43:53.999Z,1.90
2023-04-11T18:46:22.354Z,1.70
2023-04-11T18:48:50.031Z,2.00
2023-04-11T18:51:17.798Z,2.00
2023-04-11T18:53:46.128Z,1.90
2023-04-11T18:56:13.609Z,4.20
2023-04-11T18:58:45.592Z,6.10
2023-04-11T19:01:17.363Z,7.60
2023-04-11T19:03:46.831Z,8.00
2023-04-11T19:06:14.833Z,2.70
2023-04-11T19:08:42.586Z,4.60
2023-04-11T19:11:10.606Z,3.10
2023-04-11T19:13:38.563Z,3.60
2023-04-11T19:16:07.145Z,2.60
2023-04-11T19:18:36.076Z,1.90
2023-04-11T19:21:04.246Z,2.30
2023-04-11T19:23:33.929Z,2.20
2023-04-11T19:26:03.438Z,1.80
2023-04-11T19:28:31.637Z,2.50
2023-04-11T19:31:01.700Z,1.90
2023-04-11T19:33:30.276Z,2.10
2023-04-11T19:35:58.462Z,4.10
2023-04-11T19:38:28.196Z,2.90
2023-04-11T19:40:57.677Z,2.10
2023-04-11T19:43:26.060Z,1.90
2023-04-11T19:45:55.568Z,1.80
2023-04-11T19:48:23.870Z,1.70
2023-04-11T19:50:53.110Z,1.90
2023-04-11T19:53:21.854Z,2.00
2023-04-11T19:55:53.427Z,2.80
2023-04-11T19:58:22.040Z,2.30
2023-04-11T20:00:52.361Z,3.50
2023-04-11T20:03:25.164Z,3.20
2023-04-11T20:05:57.879Z,3.00
2023-04-11T20:08:31.558Z,3.30
2023-04-11T20:11:01.096Z,3.00
2023-04-11T20:13:29.499Z,3.20
2023-04-11T20:15:56.836Z,3.30
2023-04-11T20:18:25.045Z,3.40
2023-04-11T20:20:53.212Z,3.40
2023-04-11T20:23:22.012Z,3.60
2023-04-11T20:25:50.461Z,3.20
2023-04-11T20:28:22.201Z,3.80
2023-04-11T20:30:49.907Z,3.70
2023-04-11T20:33:18.196Z,5.10
2023-04-11T20:35:45.472Z,3.60
2023-04-11T20:38:12.749Z,3.90
2023-04-11T20:40:40.763Z,4.00
2023-04-11T20:43:09.921Z,4.20
2023-04-11T20:45:38.414Z,4.60
2023-04-11T20:48:06.973Z,5.70
2023-04-11T20:50:34.326Z,5.60
2023-04-11T20:53:02.332Z,5.70
2023-04-11T20:55:30.704Z,5.30
2023-04-11T20:57:58.035Z,5.90
2023-04-11T21:00:25.317Z,5.50
2023-04-11T21:02:53.787Z,6.60
2023-04-11T21:05:22.877Z,6.60
2023-04-11T21:07:50.614Z,7.00
2023-04-11T21:10:21.620Z,6.80
2023-04-11T21:12:52.048Z,7.50
2023-04-11T21:15:20.497Z,7.00
2023-04-11T21:17:48.851Z,6.60
2023-04-11T21:20:20.380Z,7.50
2023-04-11T21:22:50.042Z,8.00
2023-04-11T21:25:17.338Z,8.20
2023-04-11T21:27:45.671Z,7.20
2023-04-11T21:30:14.067Z,7.30
2023-04-11T21:32:42.038Z,6.80
2023-04-11T21:35:11.671Z,7.70
2023-04-11T21:37:39.951Z,5.90
2023-04-11T21:40:08.034Z,5.90
2023-04-11T21:42:35.436Z,6.20
2023-04-11T21:45:03.761Z,6.50
2023-04-11T21:47:31.049Z,6.20
2023-04-11T21:49:58.834Z,6.80
2023-04-11T21:52:26.211Z,6.30
2023-04-11T21:54:53.665Z,7.20
2023-04-11T21:57:21.327Z,7.70
2023-04-11T21:59:48.793Z,7.10
2023-04-11T22:02:16.380Z,7.20
2023-04-11T22:05:01.607Z,7.60
2023-04-11T22:07:49.017Z,7.00
2023-04-11T22:10:23.975Z,7.10
2023-04-11T22:12:55.192Z,7.30
2023-04-11T22:15:24.614Z,8.00
2023-04-11T22:17:56.818Z,7.70
2023-04-11T22:20:24.751Z,9.10
2023-04-11T22:22:52.140Z,8.20
2023-04-11T22:25:23.123Z,8.10
2023-04-11T22:27:50.488Z,8.20
2023-04-11T22:30:18.092Z,8.80
2023-04-11T22:32:45.672Z,8.80
2023-04-11T22:35:14.817Z,9.30
2023-04-11T22:37:42.972Z,10.30
2023-04-11T22:40:15.261Z,10.40
2023-04-11T22:42:42.585Z,11.80
2023-04-11T22:45:10.771Z,11.60
2023-04-11T22:47:38.771Z,11.20
2023-04-11T22:50:06.802Z,10.80
2023-04-11T22:52:36.013Z,10.60
2023-04-11T22:55:05.611Z,10.30
2023-04-11T22:57:32.713Z,10.70
2023-04-11T23:00:00.327Z,10.70
2023-04-11T23:02:32.475Z,10.60
2023-04-11T23:05:05.312Z,11.00
2023-04-11T23:07:33.403Z,11.50
2023-04-11T23:10:03.137Z,11.20
2023-04-11T23:12:31.102Z,12.20
2023-04-11T23:15:02.939Z,10.90
2023-04-11T23:17:30.231Z,12.50
2023-04-11T23:19:59.823Z,11.80
2023-04-11T23:22:28.185Z,10.40
2023-04-11T23:24:55.466Z,11.60
2023-04-11T23:27:23.390Z,12.00
2023-04-11T23:29:53.530Z,10.80
2023-04-11T23:32:20.866Z,11.50
2023-04-11T23:34:48.529Z,11.90
2023-04-11T23:37:17.294Z,11.40
2023-04-11T23:39:44.457Z,11.80
2023-04-11T23:42:11.884Z,11.40
2023-04-11T23:44:39.171Z,12.00
2023-04-11T23:47:06.714Z,12.10
2023-04-11T23:49:34.211Z,13.20
2023-04-11T23:52:01.514Z,12.40
2023-04-11T23:54:30.421Z,12.20
2023-04-11T23:56:58.961Z,12.20
2023-04-11T23:59:26.236Z,12.00
